createdAt,value
2023-04-05T00:01:08.261Z,13.65
2023-04-05T00:03:36.507Z,13.61
2023-04-05T00:06:05.513Z,13.59
2023-04-05T00:08:33.526Z,13.59
2023-04-05T00:11:02.763Z,13.60
2023-04-05T00:13:31.522Z,13.63
2023-04-05T00:16:01.336Z,13.65
2023-04-05T00:18:34.404Z,13.67
2023-04-05T00:21:02.534Z,13.67
2023-04-05T00:23:37.500Z,13.69
2023-04-05T00:26:06.891Z,13.72
2023-04-05T00:28:35.371Z,13.75
2023-04-05T00:31:03.430Z,13.77
2023-04-05T00:33:31.298Z,13.79
2023-04-05T00:35:59.212Z,13.84
2023-04-05T00:38:27.269Z,13.83
2023-04-05T00:40:55.170Z,13.83
2023-04-05T00:43:24.394Z,13.87
2023-04-05T00:45:52.245Z,13.90
2023-04-05T00:48:20.214Z,13.92
2023-04-05T00:50:48.438Z,13.93
2023-04-05T00:53:16.296Z,13.92
2023-04-05T00:55:44.149Z,13.95
2023-04-05T00:58:12.734Z,13.91
2023-04-05T01:00:42.219Z,13.98
2023-04-05T01:03:10.237Z,13.94
2023-04-05T01:05:40.130Z,13.98
2023-04-05T01:08:13.115Z,13.98
2023-04-05T01:10:43.191Z,13.98
2023-04-05T01:13:11.221Z,13.99
2023-04-05T01:15:39.222Z,14.01
2023-04-05T01:18:10.686Z,14.02
2023-04-05T01:20:40.776Z,13.96
2023-04-05T01:23:47.438Z,14.05
2023-04-05T01:26:45.718Z,13.98
2023-04-05T01:29:48.180Z,14.05
2023-04-05T01:32:31.604Z,13.96
2023-04-05T01:35:03.193Z,14.01
2023-04-05T01:37:32.897Z,14.03
2023-04-05T01:40:00.815Z,14.06
2023-04-05T01:42:29.061Z,14.04
2023-04-05T01:44:58.518Z,14.02
2023-04-05T01:47:26.478Z,13.98
2023-04-05T01:49:54.414Z,13.98
2023-04-05T01:52:22.568Z,13.99
2023-04-05T01:54:50.423Z,14.03
2023-04-05T01:57:18.298Z,14.05
2023-04-05T01:59:46.198Z,14.05
2023-04-05T02:02:15.652Z,14.08
2023-04-05T02:04:43.519Z,14.06
2023-04-05T02:07:11.390Z,14.06
2023-04-05T02:09:39.247Z,14.05
2023-04-05T02:12:07.084Z,14.05
2023-04-05T02:14:35.408Z,14.03
2023-04-05T02:17:05.815Z,13.93
2023-04-05T02:19:40.736Z,13.98
2023-04-05T02:22:08.980Z,13.98
2023-04-05T02:24:36.851Z,13.99
2023-04-05T02:27:04.825Z,13.94
2023-04-05T02:29:32.642Z,13.90
2023-04-05T02:32:00.549Z,13.86
2023-04-05T02:34:28.568Z,13.83
2023-04-05T02:36:58.984Z,13.83
2023-04-05T02:39:29.089Z,13.83
2023-04-05T02:41:56.993Z,13.61
2023-04-05T02:44:24.882Z,13.78
2023-04-05T02:46:52.736Z,13.76
2023-04-05T02:49:20.990Z,13.76
2023-04-05T02:51:48.829Z,13.76
2023-04-05T02:54:18.119Z,13.76
2023-04-05T02:56:46.332Z,13.79
2023-04-05T02:59:14.851Z,13.82
2023-04-05T03:01:44.867Z,13.79
2023-04-05T03:04:14.663Z,13.83
2023-04-05T03:06:48.662Z,13.82
2023-04-05T03:09:17.985Z,13.82
2023-04-05T03:11:45.890Z,13.83
2023-04-05T03:14:13.802Z,13.83
2023-04-05T03:16:41.753Z,13.85
2023-04-05T03:19:09.916Z,13.83
2023-04-05T03:21:37.850Z,13.84
2023-04-05T03:24:07.193Z,13.84
2023-04-05T03:26:36.456Z,13.80
2023-04-05T03:29:04.287Z,13.75
2023-04-05T03:31:32.212Z,13.72
2023-04-05T03:34:00.155Z,13.65
2023-04-05T03:36:30.652Z,13.60
2023-04-05T03:38:58.829Z,13.57
2023-04-05T03:41:27.080Z,13.54
2023-04-05T03:43:56.517Z,13.43
2023-04-05T03:46:24.563Z,13.49
2023-04-05T03:48:52.842Z,13.48
2023-04-05T03:51:20.957Z,13.48
2023-04-05T03:53:48.856Z,13.48
2023-04-05T03:56:16.702Z,13.47
2023-04-05T03:58:44.564Z,13.44
2023-04-05T04:01:13.830Z,13.43
2023-04-05T04:03:41.768Z,13.43
2023-04-05T04:06:09.673Z,13.42
2023-04-05T04:08:37.608Z,13.40
2023-04-05T04:11:06.567Z,13.37
2023-04-05T04:13:34.472Z,13.38
2023-04-05T04:16:02.385Z,13.38
2023-04-05T04:18:31.683Z,13.38
2023-04-05T04:20:59.754Z,13.34
2023-04-05T04:23:28.924Z,13.28
2023-04-05T04:25:56.771Z,13.26
2023-04-05T04:28:27.945Z,13.15
2023-04-05T04:30:55.836Z,13.21
2023-04-05T04:33:24.145Z,13.22
2023-04-05T04:35:54.903Z,13.26
2023-04-05T04:38:25.953Z,13.29
2023-04-05T04:40:54.040Z,13.33
2023-04-05T04:43:27.362Z,13.35
2023-04-05T04:45:55.673Z,13.40
2023-04-05T04:48:23.579Z,13.44
2023-04-05T04:50:51.831Z,13.38
2023-04-05T04:53:24.203Z,13.38
2023-04-05T04:55:52.335Z,13.38
2023-04-05T04:58:20.293Z,13.35
2023-04-05T05:00:48.420Z,13.35
2023-04-05T05:03:16.640Z,13.36
2023-04-05T05:05:44.620Z,13.35
2023-04-05T05:08:12.705Z,13.34
2023-04-05T05:10:42.320Z,13.35
2023-04-05T05:13:11.220Z,13.35
2023-04-05T05:15:40.933Z,13.34
2023-04-05T05:18:09.080Z,13.36
2023-04-05T05:20:37.450Z,13.36
2023-04-05T05:23:06.030Z,13.37
2023-04-05T05:25:35.419Z,13.38
2023-04-05T05:28:05.106Z,13.31
2023-04-05T05:30:33.576Z,13.34
2023-04-05T05:33:05.528Z,13.32
2023-04-05T05:35:40.635Z,13.33
2023-04-05T05:38:10.763Z,13.34
2023-04-05T05:40:40.735Z,13.33
2023-04-05T05:43:10.618Z,13.14
2023-04-05T05:45:44.007Z,13.26
2023-04-05T05:48:12.142Z,13.25
2023-04-05T05:50:40.849Z,13.27
2023-04-05T05:53:08.911Z,13.27
2023-04-05T05:55:36.899Z,13.30
2023-04-05T05:58:05.187Z,13.32
2023-04-05T06:00:34.559Z,13.34
2023-04-05T06:03:02.537Z,13.35
2023-04-05T06:05:30.462Z,13.36
2023-04-05T06:07:58.317Z,13.34
2023-04-05T06:10:34.754Z,13.24
2023-04-05T06:13:02.764Z,13.34
2023-04-05T06:15:32.640Z,13.32
2023-04-05T06:18:02.176Z,13.36
2023-04-05T06:20:30.118Z,13.40
2023-04-05T06:22:57.980Z,13.43
2023-04-05T06:25:26.700Z,13.46
2023-04-05T06:27:54.605Z,13.44
2023-04-05T06:30:22.626Z,13.53
2023-04-05T06:32:54.854Z,13.56
2023-04-05T06:35:24.665Z,13.64
2023-04-05T06:37:52.606Z,13.67
2023-04-05T06:40:20.729Z,13.68
2023-04-05T06:42:48.721Z,13.69
2023-04-05T06:45:19.134Z,13.72
2023-04-05T06:47:47.162Z,13.75
2023-04-05T06:50:15.128Z,13.74
2023-04-05T06:52:44.445Z,13.71
2023-04-05T06:55:12.440Z,13.63
2023-04-05T06:57:40.397Z,13.65
2023-04-05T07:00:11.843Z,13.64
2023-04-05T07:02:41.339Z,13.60
2023-04-05T07:05:09.667Z,13.63
2023-04-05T07:07:40.282Z,13.52
2023-04-05T07:10:10.558Z,13.60
2023-04-05T07:12:39.079Z,13.67
2023-04-05T07:15:08.440Z,13.66
2023-04-05T07:17:36.602Z,13.73
2023-04-05T07:20:07.525Z,13.62
2023-04-05T07:22:35.825Z,13.78
2023-04-05T07:25:03.886Z,13.80
2023-04-05T07:27:33.280Z,13.84
2023-04-05T07:30:01.546Z,13.88
2023-04-05T07:32:29.698Z,13.88
2023-04-05T07:34:57.710Z,13.90
2023-04-05T07:37:27.348Z,13.94
2023-04-05T07:39:55.349Z,13.98
2023-04-05T07:42:23.274Z,14.01
2023-04-05T07:44:52.676Z,14.04
2023-04-05T07:47:20.562Z,14.05
2023-04-05T07:49:48.490Z,14.05
2023-04-05T07:52:16.392Z,14.05
2023-04-05T07:54:45.766Z,13.98
2023-04-05T07:57:17.734Z,14.05
2023-04-05T07:59:45.709Z,14.05
2023-04-05T08:02:15.193Z,14.09
2023-04-05T08:04:43.180Z,14.16
2023-04-05T08:07:11.290Z,14.23
2023-04-05T08:09:39.144Z,14.26
2023-04-05T08:12:07.776Z,14.29
2023-04-05T08:14:35.665Z,14.27
2023-04-05T08:17:03.583Z,14.25
2023-04-05T08:19:32.856Z,14.24
2023-04-05T08:22:00.804Z,14.25
2023-04-05T08:24:28.798Z,14.31
2023-04-05T08:26:56.783Z,14.38
2023-04-05T08:29:24.794Z,14.41
2023-04-05T08:31:52.759Z,14.53
2023-04-05T08:34:20.758Z,14.60
2023-04-05T08:36:50.385Z,14.70
2023-04-05T08:39:18.733Z,14.80
2023-04-05T08:41:49.322Z,14.87
2023-04-05T08:44:17.175Z,14.83
2023-04-05T08:46:45.054Z,14.71
2023-04-05T08:49:12.946Z,15.04
2023-04-05T08:51:40.949Z,15.14
2023-04-05T08:54:10.409Z,15.22
2023-04-05T08:56:38.358Z,15.31
2023-04-05T08:59:07.364Z,15.38
2023-04-05T09:01:39.296Z,15.45
2023-04-05T09:04:07.772Z,15.49
2023-04-05T09:06:36.878Z,15.49
2023-04-05T09:09:07.743Z,15.51
2023-04-05T09:11:37.226Z,15.49
2023-04-05T09:14:05.176Z,15.53
2023-04-05T09:16:33.907Z,15.54
2023-04-05T09:19:01.987Z,15.55
2023-04-05T09:21:30.457Z,15.57
2023-04-05T09:23:58.776Z,15.61
2023-04-05T09:26:27.330Z,15.66
2023-04-05T09:28:56.740Z,15.58
2023-04-05T09:31:38.022Z,15.75
2023-04-05T09:34:06.258Z,15.79
2023-04-05T09:36:34.751Z,15.84
2023-04-05T09:39:06.748Z,15.92
2023-04-05T09:41:34.784Z,15.84
2023-04-05T09:44:04.059Z,16.02
2023-04-05T09:46:34.097Z,16.06
2023-04-05T09:49:03.850Z,16.15
2023-04-05T09:51:35.201Z,16.21
2023-04-05T09:54:04.022Z,16.19
2023-04-05T09:56:33.106Z,16.31
2023-04-05T09:59:02.447Z,16.39
2023-04-05T10:01:33.262Z,16.42
2023-04-05T10:04:01.615Z,16.43
2023-04-05T10:06:39.238Z,16.44
2023-04-05T10:09:08.139Z,16.39
2023-04-05T10:11:36.377Z,16.34
2023-04-05T10:14:05.181Z,16.33
2023-04-05T10:16:37.954Z,16.28
2023-04-05T10:19:06.966Z,16.28
2023-04-05T10:21:35.408Z,16.26
2023-04-05T10:24:07.608Z,16.20
2023-04-05T10:26:39.543Z,16.22
2023-04-05T10:29:11.333Z,16.23
2023-04-05T10:31:44.666Z,16.20
2023-04-05T10:34:15.481Z,16.11
2023-04-05T10:36:46.621Z,16.07
2023-04-05T10:39:15.013Z,16.08
2023-04-05T10:41:44.166Z,16.08
2023-04-05T10:44:23.051Z,16.11
2023-04-05T10:46:56.868Z,16.18
2023-04-05T10:49:33.510Z,16.28
2023-04-05T10:52:01.916Z,16.42
2023-04-05T10:54:29.931Z,16.57
2023-04-05T10:56:57.845Z,16.70
2023-04-05T10:59:26.043Z,16.81
2023-04-05T11:01:55.557Z,16.84
2023-04-05T11:04:23.547Z,16.88
2023-04-05T11:07:11.592Z,16.83
2023-04-05T11:09:39.740Z,16.87
2023-04-05T11:12:07.837Z,16.84
2023-04-05T11:14:37.326Z,16.82
2023-04-05T11:17:06.888Z,16.76
2023-04-05T11:19:52.340Z,16.69
2023-04-05T11:22:27.306Z,16.60
2023-04-05T11:24:58.065Z,16.48
2023-04-05T11:27:26.834Z,16.50
2023-04-05T11:29:54.937Z,16.48
2023-04-05T11:32:24.568Z,16.40
2023-04-05T11:35:02.118Z,16.38
2023-04-05T11:37:55.395Z,16.37
2023-04-05T11:40:27.855Z,16.33
2023-04-05T11:43:06.046Z,16.31
2023-04-05T11:45:34.395Z,16.30
2023-04-05T11:48:06.064Z,16.30
2023-04-05T11:50:33.997Z,16.32
2023-04-05T11:53:14.357Z,16.40
2023-04-05T11:55:43.513Z,16.44
2023-04-05T11:58:15.755Z,16.50
2023-04-05T12:00:44.040Z,16.48
2023-04-05T12:03:16.766Z,16.46
2023-04-05T12:05:56.255Z,16.45
2023-04-05T12:08:24.531Z,16.38
2023-04-05T12:10:57.040Z,16.35
2023-04-05T12:13:29.430Z,16.32
2023-04-05T12:15:59.401Z,16.34
2023-04-05T12:18:29.166Z,16.38
2023-04-05T12:20:57.090Z,16.43
2023-04-05T12:23:25.052Z,16.44
2023-04-05T12:25:54.157Z,16.45
2023-04-05T12:28:22.107Z,16.36
2023-04-05T12:30:50.329Z,16.38
2023-04-05T12:33:29.597Z,16.41
2023-04-05T12:35:57.599Z,16.44
2023-04-05T12:38:27.148Z,16.48
2023-04-05T12:40:55.561Z,16.51
2023-04-05T12:43:23.591Z,16.54
2023-04-05T12:45:54.098Z,16.56
2023-04-05T12:48:23.798Z,16.56
2023-04-05T12:50:54.669Z,16.57
2023-04-05T12:53:24.033Z,16.60
2023-04-05T12:55:52.559Z,16.57
2023-04-05T12:58:20.901Z,16.45
2023-04-05T13:00:48.843Z,16.42
2023-04-05T13:03:18.222Z,16.40
2023-04-05T13:05:46.304Z,16.41
2023-04-05T13:08:15.687Z,16.40
2023-04-05T13:10:43.604Z,16.37
2023-04-05T13:13:11.477Z,16.36
2023-04-05T13:15:39.763Z,16.35
2023-04-05T13:18:07.939Z,16.35
2023-04-05T13:20:36.141Z,16.37
2023-04-05T13:23:04.090Z,16.43
2023-04-05T13:25:33.375Z,16.47
2023-04-05T13:28:01.251Z,16.45
2023-04-05T13:30:30.615Z,16.45
2023-04-05T13:32:58.701Z,16.37
2023-04-05T13:35:27.152Z,16.32
2023-04-05T13:37:55.130Z,16.27
2023-04-05T13:40:23.066Z,16.25
2023-04-05T13:42:52.337Z,16.23
2023-04-05T13:45:20.440Z,16.20
2023-04-05T13:47:48.570Z,16.18
2023-04-05T13:50:16.558Z,16.15
2023-04-05T13:52:44.465Z,16.16
2023-04-05T13:55:12.549Z,16.19
2023-04-05T13:57:40.477Z,16.23
2023-04-05T14:00:11.092Z,16.25
2023-04-05T14:02:39.186Z,16.28
2023-04-05T14:05:08.459Z,16.33
2023-04-05T14:07:36.504Z,16.34
2023-04-05T14:10:06.235Z,16.43
2023-04-05T14:12:34.988Z,16.41
2023-04-05T14:15:02.923Z,16.43
2023-04-05T14:17:32.267Z,16.48
2023-04-05T14:20:00.270Z,16.49
2023-04-05T14:22:28.205Z,16.47
2023-04-05T14:24:56.102Z,16.45
2023-04-05T14:27:27.136Z,16.40
2023-04-05T14:29:57.084Z,16.38
2023-04-05T14:32:25.582Z,16.38
2023-04-05T14:34:54.984Z,16.35
2023-04-05T14:37:22.879Z,16.31
2023-04-05T14:39:50.812Z,16.29
2023-04-05T14:42:18.722Z,16.30
2023-04-05T14:44:46.719Z,16.31
2023-04-05T14:47:14.714Z,16.31
2023-04-05T14:49:43.018Z,16.32
2023-04-05T14:52:12.398Z,16.24
2023-04-05T14:54:40.311Z,16.26
2023-04-05T14:57:08.236Z,16.25
2023-04-05T14:59:36.126Z,16.24
2023-04-05T15:02:04.219Z,16.26
2023-04-05T15:04:32.209Z,16.12
2023-04-05T15:07:00.137Z,16.26
2023-04-05T15:09:29.551Z,16.32
2023-04-05T15:11:57.504Z,16.32
2023-04-05T15:14:31.724Z,16.36
2023-04-05T15:17:00.592Z,16.36
2023-04-05T15:19:30.628Z,16.34
2023-04-05T15:21:58.611Z,16.33
2023-04-05T15:24:26.525Z,16.34
2023-04-05T15:27:01.754Z,16.37
2023-04-05T15:29:29.922Z,16.28
2023-04-05T15:31:58.599Z,16.38
2023-04-05T15:34:26.606Z,16.35
2023-04-05T15:36:54.912Z,16.30
2023-04-05T15:39:22.862Z,16.25
2023-04-05T15:41:50.825Z,16.21
2023-04-05T15:44:20.441Z,16.17
2023-04-05T15:46:48.675Z,16.17
2023-04-05T15:49:17.706Z,16.17
2023-04-05T15:51:45.714Z,16.15
2023-04-05T15:54:18.562Z,16.14
2023-04-05T15:56:46.503Z,16.12
2023-04-05T15:59:14.483Z,16.10
2023-04-05T16:01:43.927Z,16.07
2023-04-05T16:04:11.895Z,16.05
2023-04-05T16:06:39.820Z,16.03
2023-04-05T16:09:07.789Z,16.09
2023-04-05T16:11:35.717Z,16.09
2023-04-05T16:14:04.151Z,16.05
2023-04-05T16:16:41.924Z,16.03
2023-04-05T16:19:19.331Z,15.94
2023-04-05T16:21:47.647Z,15.96
2023-04-05T16:24:15.897Z,15.99
2023-04-05T16:26:43.912Z,16.01
2023-04-05T16:29:11.828Z,16.01
2023-04-05T16:31:39.844Z,15.99
2023-04-05T16:34:08.132Z,15.94
2023-04-05T16:36:37.701Z,15.96
2023-04-05T16:39:05.709Z,15.95
2023-04-05T16:41:33.967Z,15.95
2023-04-05T16:44:01.975Z,15.94
2023-04-05T16:46:32.222Z,15.95
2023-04-05T16:49:00.710Z,15.93
2023-04-05T16:51:28.834Z,15.95
2023-04-05T16:53:58.385Z,15.96
2023-04-05T16:56:26.282Z,15.96
2023-04-05T16:58:54.211Z,15.95
2023-04-05T17:01:22.175Z,15.93
2023-04-05T17:03:50.103Z,15.94
2023-04-05T17:06:18.012Z,15.92
2023-04-05T17:08:45.912Z,15.94
2023-04-05T17:11:15.217Z,15.94
2023-04-05T17:13:45.053Z,15.97
2023-04-05T17:16:13.686Z,15.97
2023-04-05T17:18:42.035Z,15.96
2023-04-05T17:21:10.068Z,15.97
2023-04-05T17:23:37.993Z,16.00
2023-04-05T17:26:06.037Z,16.00
2023-04-05T17:28:35.828Z,16.01
2023-04-05T17:31:03.939Z,15.97
2023-04-05T17:33:32.368Z,15.99
2023-04-05T17:36:00.321Z,15.98
2023-04-05T17:38:28.279Z,15.94
2023-04-05T17:40:57.341Z,15.95
2023-04-05T17:43:25.413Z,15.93
2023-04-05T17:45:55.482Z,15.94
2023-04-05T17:48:23.390Z,15.93
2023-04-05T17:50:51.272Z,15.94
2023-04-05T17:53:19.224Z,15.93
2023-04-05T17:55:47.200Z,15.92
2023-04-05T17:58:15.120Z,15.93
2023-04-05T18:00:43.048Z,15.84
2023-04-05T18:03:13.401Z,15.87
2023-04-05T18:05:41.504Z,15.83
2023-04-05T18:08:09.445Z,15.81
2023-04-05T18:10:37.322Z,15.76
2023-04-05T18:13:05.871Z,15.68
2023-04-05T18:15:33.850Z,15.66
2023-04-05T18:18:02.179Z,15.62
2023-04-05T18:20:31.511Z,15.62
2023-04-05T18:22:59.659Z,15.60
2023-04-05T18:25:27.768Z,15.60
2023-04-05T18:27:55.952Z,15.61
2023-04-05T18:30:24.105Z,15.59
2023-04-05T18:32:52.005Z,15.62
2023-04-05T18:35:20.025Z,15.61
2023-04-05T18:37:49.303Z,15.62
2023-04-05T18:40:17.758Z,15.63
2023-04-05T18:42:46.342Z,15.63
2023-04-05T18:45:14.251Z,15.62
2023-04-05T18:47:42.185Z,15.65
2023-04-05T18:50:11.037Z,15.64
2023-04-05T18:52:38.930Z,15.60
2023-04-05T18:55:09.054Z,15.62
2023-04-05T18:57:36.964Z,15.63
2023-04-05T19:00:05.553Z,15.62
2023-04-05T19:02:33.493Z,15.66
2023-04-05T19:05:01.412Z,15.68
2023-04-05T19:07:29.279Z,15.67
2023-04-05T19:09:57.111Z,15.68
2023-04-05T19:12:26.416Z,15.65
2023-04-05T19:14:54.308Z,15.65
2023-04-05T19:17:22.433Z,15.66
2023-04-05T19:19:50.342Z,15.65
2023-04-05T19:22:18.259Z,15.65
2023-04-05T19:24:46.163Z,15.66
2023-04-05T19:27:14.074Z,15.63
2023-04-05T19:29:43.650Z,15.61
2023-04-05T19:32:11.523Z,15.62
2023-04-05T19:34:39.697Z,15.63
2023-04-05T19:37:07.583Z,15.61
2023-04-05T19:39:35.854Z,15.60
2023-04-05T19:42:03.838Z,15.59
2023-04-05T19:44:51.636Z,15.52
2023-04-05T19:47:20.577Z,15.61
2023-04-05T19:49:48.899Z,15.65
2023-04-05T19:52:35.147Z,15.63
2023-04-05T19:55:03.023Z,15.63
2023-04-05T19:57:31.222Z,15.56
2023-04-05T20:00:00.668Z,15.66
2023-04-05T20:02:37.084Z,15.68
2023-04-05T20:05:06.394Z,15.69
2023-04-05T20:07:34.266Z,15.71
2023-04-05T20:10:02.127Z,15.73
2023-04-05T20:12:31.426Z,15.72
2023-04-05T20:15:00.680Z,15.69
2023-04-05T20:17:28.627Z,15.66
2023-04-05T20:19:57.705Z,15.70
2023-04-05T20:22:26.904Z,15.68
2023-04-05T20:24:54.864Z,15.67
2023-04-05T20:27:22.758Z,15.65
2023-04-05T20:29:52.407Z,15.68
2023-04-05T20:32:21.676Z,15.69
2023-04-05T20:34:49.644Z,15.71
2023-04-05T20:37:17.542Z,15.70
2023-04-05T20:39:45.517Z,15.66
2023-04-05T20:42:13.566Z,15.70
2023-04-05T20:44:41.509Z,15.70
2023-04-05T20:47:09.426Z,15.71
2023-04-05T20:49:38.658Z,15.70
2023-04-05T20:52:07.861Z,15.71
2023-04-05T20:54:35.820Z,15.71
2023-04-05T20:57:03.703Z,15.72
2023-04-05T20:59:31.605Z,15.73
2023-04-05T21:01:59.639Z,15.74
2023-04-05T21:04:29.980Z,15.73
2023-04-05T21:06:59.495Z,15.74
2023-04-05T21:09:27.862Z,15.73
2023-04-05T21:11:55.792Z,15.75
2023-04-05T21:14:23.772Z,15.77
2023-04-05T21:16:51.698Z,15.78
2023-04-05T21:19:19.691Z,15.78
2023-04-05T21:21:47.677Z,15.79
2023-04-05T21:24:17.015Z,15.79
2023-04-05T21:26:44.881Z,15.79
2023-04-05T21:29:14.104Z,15.77
2023-04-05T21:31:42.110Z,15.80
2023-04-05T21:34:10.012Z,15.80
2023-04-05T21:36:37.960Z,15.80
2023-04-05T21:39:08.782Z,15.81
2023-04-05T21:41:38.241Z,15.81
2023-04-05T21:44:06.576Z,15.82
2023-04-05T21:46:34.518Z,15.80
2023-04-05T21:49:02.434Z,15.83
2023-04-05T21:51:30.344Z,15.84
2023-04-05T21:53:58.322Z,15.88
2023-04-05T21:56:26.202Z,15.87
2023-04-05T21:58:55.511Z,15.88
2023-04-05T22:01:23.804Z,15.87
2023-04-05T22:03:52.260Z,15.89
2023-04-05T22:06:20.178Z,15.87
2023-04-05T22:08:50.063Z,15.85
2023-04-05T22:11:18.308Z,15.87
2023-04-05T22:13:46.200Z,15.90
2023-04-05T22:16:15.524Z,15.92
2023-04-05T22:18:44.026Z,15.91
2023-04-05T22:21:12.321Z,15.92
2023-04-05T22:23:42.812Z,15.93
2023-04-05T22:26:10.984Z,15.95
2023-04-05T22:28:38.871Z,15.96
2023-04-05T22:31:06.970Z,15.93
2023-04-05T22:33:36.242Z,15.92
2023-04-05T22:36:04.323Z,15.94
2023-04-05T22:38:32.234Z,15.94
2023-04-05T22:41:00.126Z,15.96
2023-04-05T22:43:28.046Z,15.94
2023-04-05T22:45:56.204Z,15.94
2023-04-05T22:48:24.086Z,15.93
2023-04-05T22:50:53.320Z,15.95
2023-04-05T22:53:21.273Z,15.96
2023-04-05T22:55:49.170Z,15.96
2023-04-05T22:58:17.348Z,15.97
2023-04-05T23:00:45.231Z,15.96
2023-04-05T23:03:13.074Z,15.96
2023-04-05T23:05:41.500Z,15.95
2023-04-05T23:08:10.789Z,15.96
2023-04-05T23:10:38.703Z,15.97
2023-04-05T23:13:07.152Z,15.95
2023-04-05T23:15:35.112Z,15.95
2023-04-05T23:18:03.113Z,15.93
2023-04-05T23:20:30.990Z,15.87
2023-04-05T23:22:58.861Z,15.80
2023-04-05T23:25:28.097Z,15.68
2023-04-05T23:27:56.122Z,15.52
2023-04-05T23:30:24.025Z,15.53
2023-04-05T23:32:51.938Z,15.40
2023-04-05T23:35:19.945Z,15.31
2023-04-05T23:37:47.837Z,15.22
2023-04-05T23:40:16.156Z,15.18
2023-04-05T23:42:45.720Z,15.16
2023-04-05T23:45:13.609Z,15.13
2023-04-05T23:47:41.523Z,15.11
2023-04-05T23:50:10.859Z,15.09
2023-04-05T23:52:38.750Z,15.05
2023-04-05T23:55:07.096Z,14.95
2023-04-05T23:57:35.007Z,14.82
